Time;durP1;ratioP1;P1;durP2;ratioP2;P2;SDS_P1;SDS_P2;PMS_P1;PMS_P2;Temp;Humidity;BMP_temperature;BMP_pressure;BME280_temperature;BME280_humidity;BME280_pressure;Samples;Min_cycle;Max_cycle;Signal;HPM_P1;HPM_P2
2023/04/08 00:01:21;;;;;;;11.17;6.37;;;;;;;7.37;100.00;96425.22;6184118;23;20047;-85
2023/04/08 00:03:47;;;;;;;8.67;6.03;;;;;;;7.39;100.00;96425.09;6234876;23;20101;-85
2023/04/08 00:06:12;;;;;;;11.33;6.80;;;;;;;7.32;100.00;96424.81;6211378;23;20325;-85
2023/04/08 00:08:38;;;;;;;9.67;6.60;;;;;;;7.24;100.00;96422.88;6209133;23;20000;-84
2023/04/08 00:11:24;;;;;;;9.20;6.37;;;;;;;7.24;100.00;96424.63;6208382;23;20070;-85
2023/04/08 00:13:56;;;;;;;10.63;6.43;;;;;;;7.27;100.00;96421.75;6209051;23;20314;-85
2023/04/08 00:16:21;;;;;;;8.90;6.47;;;;;;;7.26;100.00;96431.38;6184337;23;20016;-85
2023/04/08 00:18:48;;;;;;;10.03;6.77;;;;;;;7.24;100.00;96432.47;6184388;23;20008;-86
2023/04/08 00:21:16;;;;;;;13.10;7.10;;;;;;;7.25;100.00;96429.75;6183243;23;20036;-85
2023/04/08 00:23:42;;;;;;;13.97;8.57;;;;;;;7.21;100.00;96425.75;6209438;23;20025;-85
2023/04/08 00:26:08;;;;;;;10.10;6.93;;;;;;;7.19;100.00;96432.88;6185238;23;20016;-86
2023/04/08 00:28:34;;;;;;;12.97;8.17;;;;;;;7.18;100.00;96428.63;6209207;23;20024;-85
2023/04/08 00:30:59;;;;;;;14.87;10.10;;;;;;;7.21;100.00;96424.91;6184436;23;20013;-84
2023/04/08 00:33:31;;;;;;;14.53;9.53;;;;;;;7.31;100.00;96425.78;6184068;23;20031;-85
2023/04/08 00:35:56;;;;;;;11.53;7.17;;;;;;;7.31;100.00;96418.75;6182460;23;20016;-85
2023/04/08 00:38:22;;;;;;;11.67;7.67;;;;;;;7.34;100.00;96420.25;6184282;23;20050;-85
2023/04/08 00:40:48;;;;;;;11.93;7.53;;;;;;;7.21;100.00;96419.66;6206359;23;20020;-85
2023/04/08 00:43:15;;;;;;;12.67;7.23;;;;;;;7.25;100.00;96416.66;6180268;23;20011;-85
2023/04/08 00:45:41;;;;;;;12.33;8.80;;;;;;;7.16;100.00;96422.69;6207866;23;20653;-85
2023/04/08 00:48:06;;;;;;;12.73;8.83;;;;;;;7.22;100.00;96423.97;6184439;23;20018;-85
2023/04/08 00:50:42;;;;;;;13.17;8.17;;;;;;;7.24;100.00;96422.88;6184947;23;20012;-85
2023/04/08 00:53:09;;;;;;;12.80;8.77;;;;;;;7.24;100.00;96435.94;6184397;23;20024;-85
2023/04/08 00:55:35;;;;;;;11.93;8.43;;;;;;;7.18;100.00;96428.63;6185351;23;20039;-84
2023/04/08 00:58:01;;;;;;;12.77;9.17;;;;;;;7.22;100.00;96423.97;6208554;23;20452;-85
2023/04/08 01:00:29;;;;;;;11.90;8.63;;;;;;;7.15;100.00;96433.31;6184227;23;20022;-85
2023/04/08 01:03:08;;;;;;;13.90;9.57;;;;;;;7.15;100.00;96434.13;6183348;23;20520;-85
2023/04/08 01:05:59;;;;;;;12.23;8.80;;;;;;;7.18;100.00;96427.81;6185731;23;20016;-85
2023/04/08 01:08:26;;;;;;;12.70;9.33;;;;;;;7.11;100.00;96426.66;6207185;23;20059;-86
2023/04/08 01:10:56;;;;;;;12.23;9.03;;;;;;;7.19;100.00;96430.28;6182017;23;20022;-85
2023/04/08 01:13:25;;;;;;;14.63;9.30;;;;;;;7.14;100.00;96427.22;6182779;23;20020;-84
2023/04/08 01:15:52;;;;;;;13.30;10.07;;;;;;;7.14;100.00;96423.78;6207817;23;20012;-85
2023/04/08 01:18:18;;;;;;;13.13;9.67;;;;;;;7.16;100.00;96422.69;6182218;23;20019;-85
2023/04/08 01:20:45;;;;;;;14.23;9.80;;;;;;;7.05;100.00;96422.81;6207662;23;20036;-84
2023/04/08 01:23:50;;;;;;;15.33;9.60;;;;;;;7.10;100.00;96425.84;6181747;23;20016;-85
2023/04/08 01:26:21;;;;;;;14.00;9.83;;;;;;;7.08;100.00;96422.53;6207625;23;20012;-85
2023/04/08 01:28:50;;;;;;;15.40;9.10;;;;;;;6.97;100.00;96425.25;6239178;23;20044;-85
2023/04/08 01:31:16;;;;;;;14.67;9.97;;;;;;;6.96;100.00;96428.81;6211756;23;20352;-84
2023/04/08 01:33:45;;;;;;;11.20;8.93;;;;;;;7.01;100.00;96424.03;6212054;23;20112;-85
2023/04/08 01:36:11;;;;;;;16.67;10.73;;;;;;;7.02;100.00;96423.06;6187601;23;20009;-85
2023/04/08 01:38:37;;;;;;;13.60;9.53;;;;;;;6.99;100.00;96418.09;6190898;23;20579;-84
2023/04/08 01:41:04;;;;;;;14.50;10.73;;;;;;;6.93;100.00;96424.69;6190784;23;20016;-85
2023/04/08 01:43:32;;;;;;;13.37;10.10;;;;;;;6.84;100.00;96434.16;6186239;23;20451;-84
2023/04/08 01:45:59;;;;;;;14.40;9.77;;;;;;;6.89;100.00;96422.47;6210789;23;20365;-85
2023/04/08 01:48:27;;;;;;;13.90;9.47;;;;;;;6.75;100.00;96419.25;6186527;23;20017;-85
2023/04/08 01:50:55;;;;;;;14.57;10.63;;;;;;;6.75;100.00;96421.88;6236415;23;20023;-84
2023/04/08 01:53:21;;;;;;;14.40;9.90;;;;;;;6.71;100.00;96417.03;6210880;23;20012;-85
2023/04/08 01:55:54;;;;;;;14.63;10.27;;;;;;;6.72;100.00;96419.50;6186430;23;20011;-84
2023/04/08 01:58:20;;;;;;;;;;;;;;;6.68;100.00;96412.91;6186378;23;20051;-84
2023/04/08 02:00:47;;;;;;;15.17;10.50;;;;;;;6.67;100.00;96415.63;6186359;23;19914;-84
2023/04/08 02:03:16;;;;;;;16.50;10.83;;;;;;;6.59;100.00;96418.91;6214446;23;20012;-84
2023/04/08 02:05:44;;;;;;;14.93;10.53;;;;;;;6.50;100.00;96417.06;6206495;23;20034;-85
2023/04/08 02:08:13;;;;;;;15.37;11.23;;;;;;;6.53;100.00;96424.63;6219864;23;20008;-85
2023/04/08 02:10:39;;;;;;;14.83;11.03;;;;;;;6.55;100.00;96426.16;6188416;23;20025;-85
2023/04/08 02:13:05;;;;;;;15.43;11.47;;;;;;;6.58;100.00;96414.63;6191308;23;20017;-85
2023/04/08 02:15:40;;;;;;;16.60;11.50;;;;;;;6.52;100.00;96421.19;6218642;23;20012;-85
2023/04/08 02:18:15;;;;;;;15.50;11.30;;;;;;;6.61;100.00;96419.59;6194650;23;20016;-85
2023/04/08 02:20:49;;;;;;;17.03;12.87;;;;;;;6.48;100.00;96416.38;6218168;23;20065;-85
2023/04/08 02:23:26;;;;;;;18.10;12.47;;;;;;;6.43;100.00;96418.53;6215394;23;20008;-85
2023/04/08 02:25:55;;;;;;;17.50;12.07;;;;;;;6.42;100.00;96412.47;6189877;23;20020;-85
2023/04/08 02:28:27;;;;;;;19.03;13.87;;;;;;;6.46;100.00;96420.88;6190105;23;20012;-84
2023/04/08 02:30:53;;;;;;;18.30;12.77;;;;;;;6.58;100.00;96425.09;6213713;23;20663;-85
2023/04/08 02:33:21;;;;;;;17.63;13.23;;;;;;;6.56;100.00;96421.75;6189013;23;20032;-85
2023/04/08 02:35:54;;;;;;;17.00;12.87;;;;;;;6.45;100.00;96425.28;6189268;23;20479;-85
2023/04/08 02:38:22;;;;;;;29.77;20.87;;;;;;;6.50;100.00;96428.31;6188513;23;20016;-85
2023/04/08 02:40:50;;;;;;;30.27;21.40;;;;;;;6.61;100.00;96428.25;6189378;23;20036;-84
2023/04/08 02:43:16;;;;;;;22.17;16.33;;;;;;;6.66;100.00;96427.03;6185721;23;20054;-85
2023/04/08 02:45:43;;;;;;;16.70;11.60;;;;;;;6.68;100.00;96423.34;6212500;23;20016;-85
2023/04/08 02:48:09;;;;;;;15.07;11.23;;;;;;;6.61;100.00;96424.81;6214691;23;20016;-85
2023/04/08 02:50:36;;;;;;;15.37;11.40;;;;;;;6.64;100.00;96429.81;6190505;23;20008;-85
2023/04/08 02:53:02;;;;;;;15.03;10.30;;;;;;;6.57;100.00;96428.63;6192394;23;20080;-85
2023/04/08 02:55:31;;;;;;;15.53;10.87;;;;;;;6.63;100.00;96432.53;6191364;23;20019;-85
2023/04/08 02:57:56;;;;;;;13.13;10.03;;;;;;;6.61;100.00;96428.25;6213598;23;20021;-85
2023/04/08 03:00:22;;;;;;;14.57;10.40;;;;;;;6.65;100.00;96421.00;6214499;23;20444;-86
2023/04/08 03:02:56;;;;;;;12.83;9.87;;;;;;;6.68;100.00;96425.13;6187558;23;20008;-85
2023/04/08 03:05:21;;;;;;;15.43;9.67;;;;;;;6.64;100.00;96423.72;6211534;23;20044;-85
2023/04/08 03:08:01;;;;;;;16.07;10.87;;;;;;;6.63;100.00;96422.91;6235357;23;20361;-85
2023/04/08 03:10:26;;;;;;;13.37;9.70;;;;;;;6.60;100.00;96418.75;6185806;23;20044;-85
2023/04/08 03:12:52;;;;;;;14.47;10.13;;;;;;;6.69;100.00;96419.75;6185558;23;20507;-85
2023/04/08 03:15:17;;;;;;;14.10;10.43;;;;;;;6.63;100.00;96425.50;6186522;23;20444;-85
2023/04/08 03:17:59;;;;;;;13.57;9.50;;;;;;;6.62;100.00;96426.47;6186086;23;20013;-86
2023/04/08 03:20:25;;;;;;;13.67;10.53;;;;;;;6.57;100.00;96431.25;6212091;23;20108;-83
2023/04/08 03:22:50;;;;;;;16.33;10.13;;;;;;;6.49;100.00;96437.13;6214134;23;19997;-83
2023/04/08 03:25:16;;;;;;;13.13;9.17;;;;;;;6.46;100.00;96437.38;6193500;23;20009;-83
2023/04/08 03:27:41;;;;;;;12.53;7.73;;;;;;;6.51;100.00;96437.84;6212194;23;20009;-83
2023/04/08 03:30:07;;;;;;;13.93;8.73;;;;;;;6.38;100.00;96437.22;6211106;23;20460;-83
2023/04/08 03:32:35;;;;;;;11.80;8.67;;;;;;;6.44;100.00;96439.31;6210763;23;20012;-83
2023/04/08 03:35:01;;;;;;;13.63;9.23;;;;;;;6.45;100.00;96440.13;6212984;23;20019;-83
2023/04/08 03:37:26;;;;;;;12.43;8.93;;;;;;;6.49;100.00;96436.31;6212068;23;20043;-82
2023/04/08 03:39:53;;;;;;;16.67;10.10;;;;;;;6.57;100.00;96444.31;6211173;23;20699;-84
2023/04/08 03:42:19;;;;;;;12.23;8.80;;;;;;;6.56;100.00;96446.09;6188656;23;20012;-83
2023/04/08 03:44:45;;;;;;;13.90;8.93;;;;;;;6.55;100.00;96441.03;6214357;23;20008;-84
2023/04/08 03:47:10;;;;;;;14.10;8.90;;;;;;;6.63;100.00;96438.56;6190493;23;20008;-83
2023/04/08 03:49:36;;;;;;;14.30;9.77;;;;;;;6.64;100.00;96440.25;6187033;23;20012;-83
2023/04/08 03:52:01;;;;;;;14.03;10.33;;;;;;;6.66;100.00;96443.53;6185304;23;20013;-83
2023/04/08 03:54:27;;;;;;;17.53;11.60;;;;;;;6.69;100.00;96442.47;6210208;23;20354;-84
2023/04/08 03:56:54;;;;;;;17.43;12.20;;;;;;;6.53;100.00;96445.53;6185319;23;20016;-84
2023/04/08 03:59:19;;;;;;;18.43;12.77;;;;;;;6.65;100.00;96441.91;6185128;23;20004;-84
2023/04/08 04:01:46;;;;;;;18.80;14.90;;;;;;;6.59;100.00;96438.00;6185293;23;20032;-84
2023/04/08 04:04:12;;;;;;;18.07;13.10;;;;;;;6.62;100.00;96436.94;6211950;23;20000;-84
2023/04/08 04:06:37;;;;;;;20.00;14.80;;;;;;;6.62;100.00;96434.31;6185319;23;20023;-84
2023/04/08 04:09:03;;;;;;;21.30;15.57;;;;;;;6.64;100.00;96442.00;6210233;23;20016;-83
2023/04/08 04:11:28;;;;;;;22.53;15.87;;;;;;;6.59;100.00;96443.22;6184975;23;20630;-84
2023/04/08 04:13:54;;;;;;;20.37;15.93;;;;;;;6.57;100.00;96446.94;6209694;23;20074;-84
2023/04/08 04:16:29;;;;;;;22.33;15.77;;;;;;;6.55;100.00;96454.09;6185209;23;20016;-83
2023/04/08 04:18:55;;;;;;;23.83;15.10;;;;;;;6.57;100.00;96449.53;6185315;23;20074;-84
2023/04/08 04:21:21;;;;;;;21.60;15.90;;;;;;;6.55;100.00;96452.28;6183787;23;20591;-84
2023/04/08 04:23:50;;;;;;;22.60;15.90;;;;;;;6.49;100.00;96452.81;6209625;23;20015;-84
2023/04/08 04:26:23;;;;;;;24.87;17.47;;;;;;;6.48;100.00;96460.78;6185238;23;20100;-84
2023/04/08 04:28:49;;;;;;;25.58;17.85;;;;;;;6.41;100.00;96459.66;6210385;23;20012;-84
2023/04/08 04:31:22;;;;;;;22.20;16.37;;;;;;;6.49;100.00;96457.22;6184358;23;20492;-83
2023/04/08 04:33:48;;;;;;;24.42;17.60;;;;;;;6.63;100.00;96461.28;6184598;23;20012;-84
2023/04/08 04:36:14;;;;;;;23.73;16.67;;;;;;;6.52;100.00;96451.72;6185275;23;20005;-84
2023/04/08 04:38:51;;;;;;;24.20;16.83;;;;;;;6.65;100.00;96461.97;6184587;23;20039;-83
2023/04/08 04:41:17;;;;;;;24.83;17.80;;;;;;;6.53;100.00;96459.41;6184805;23;20055;-84
2023/04/08 04:43:46;;;;;;;24.50;17.93;;;;;;;6.49;100.00;96457.22;6209499;23;20008;-83
2023/04/08 04:46:12;;;;;;;25.90;18.50;;;;;;;6.56;100.00;96463.56;6184357;23;20437;-84
2023/04/08 04:48:39;;;;;;;27.40;18.43;;;;;;;6.51;100.00;96457.91;6210418;23;20009;-83
2023/04/08 04:51:06;;;;;;;24.37;18.27;;;;;;;6.37;100.00;96467.72;6184606;23;20092;-84
2023/04/08 04:53:32;;;;;;;24.13;17.13;;;;;;;6.32;100.00;96466.44;6209498;23;20020;-84
2023/04/08 04:55:57;;;;;;;27.53;19.00;;;;;;;6.33;100.00;96466.31;6210596;23;20008;-84
2023/04/08 04:58:24;;;;;;;24.27;17.80;;;;;;;6.35;100.00;96472.25;6209885;23;20009;-84
2023/04/08 05:01:03;;;;;;;23.70;18.13;;;;;;;6.39;100.00;96478.03;6209820;23;20000;-83
2023/04/08 05:03:28;;;;;;;22.80;16.80;;;;;;;6.26;100.00;96472.16;6186121;23;20104;-83
2023/04/08 05:05:55;;;;;;;23.73;17.57;;;;;;;6.41;100.00;96485.75;6210658;23;20007;-83
2023/04/08 05:08:21;;;;;;;22.93;16.67;;;;;;;6.51;100.00;96484.03;6220479;23;20039;-84
2023/04/08 05:10:49;;;;;;;24.03;16.77;;;;;;;6.50;100.00;96479.75;6185148;23;20019;-84
2023/04/08 05:13:16;;;;;;;25.53;17.23;;;;;;;6.48;100.00;96481.69;6184617;23;20070;-84
2023/04/08 05:15:42;;;;;;;22.37;16.60;;;;;;;6.64;100.00;96487.28;6184848;23;20024;-84
2023/04/08 05:18:07;;;;;;;22.93;17.10;;;;;;;6.53;100.00;96489.94;6185093;23;20012;-83
2023/04/08 05:20:33;;;;;;;26.00;18.30;;;;;;;6.53;100.00;96495.19;6184772;23;20356;-84
2023/04/08 05:22:59;;;;;;;24.23;17.37;;;;;;;6.56;100.00;96498.38;6184181;23;20348;-84
2023/04/08 05:25:37;;;;;;;25.57;17.17;;;;;;;6.61;100.00;96492.78;6184750;23;20005;-83
2023/04/08 05:28:03;;;;;;;21.43;16.60;;;;;;;6.60;100.00;96496.31;6185104;23;20013;-84
2023/04/08 05:30:29;;;;;;;23.07;17.23;;;;;;;6.60;100.00;96498.94;6185061;23;20040;-84
2023/04/08 05:33:07;;;;;;;23.73;16.80;;;;;;;6.63;100.00;96501.28;6209492;23;20013;-84
2023/04/08 05:35:32;;;;;;;23.03;17.03;;;;;;;6.54;100.00;96492.44;6186619;23;20626;-84
2023/04/08 05:37:58;;;;;;;23.27;17.00;;;;;;;6.53;100.00;96503.84;6186349;23;20009;-84
2023/04/08 05:40:23;;;;;;;22.37;16.77;;;;;;;6.39;100.00;96509.38;6187029;23;20017;-83
2023/04/08 05:42:49;;;;;;;24.37;18.40;;;;;;;6.50;100.00;96508.50;6186042;23;20019;-84
2023/04/08 05:45:15;;;;;;;23.00;17.03;;;;;;;6.51;100.00;96510.16;6186150;23;20020;-84
2023/04/08 05:47:41;;;;;;;24.47;17.40;;;;;;;6.41;100.00;96512.72;6211731;23;20677;-83
2023/04/08 05:50:07;;;;;;;20.83;16.77;;;;;;;6.55;100.00;96511.56;6186819;23;20123;-83
2023/04/08 05:52:35;;;;;;;23.83;17.63;;;;;;;6.67;100.00;96513.13;6185765;23;20013;-83
2023/04/08 05:55:00;;;;;;;23.87;16.63;;;;;;;6.69;100.00;96505.19;6210705;23;20016;-84
2023/04/08 05:57:26;;;;;;;22.07;16.23;;;;;;;6.75;100.00;96515.13;6185629;23;20654;-84
2023/04/08 05:59:55;;;;;;;21.73;17.07;;;;;;;6.67;100.00;96515.75;6210273;23;20012;-84
2023/04/08 06:02:20;;;;;;;23.60;17.60;;;;;;;6.64;100.00;96521.25;6184543;23;20016;-84
2023/04/08 06:04:52;;;;;;;22.80;16.50;;;;;;;6.74;100.00;96518.69;6210615;23;20008;-83
2023/04/08 06:07:18;;;;;;;21.73;16.37;;;;;;;6.73;100.00;96527.50;6186651;23;20429;-84
2023/04/08 06:09:44;;;;;;;22.33;16.87;;;;;;;6.66;100.00;96531.56;6185526;23;20013;-84
2023/04/08 06:12:11;;;;;;;22.37;17.10;;;;;;;6.72;100.00;96528.44;6185124;23;20027;-84
2023/04/08 06:14:36;;;;;;;20.13;15.53;;;;;;;6.72;100.00;96529.28;6186117;23;20016;-83
2023/04/08 06:17:05;;;;;;;20.57;16.00;;;;;;;6.78;100.00;96531.38;6185481;23;20016;-84
2023/04/08 06:19:31;;;;;;;23.90;15.67;;;;;;;6.81;100.00;96536.34;6211036;23;20001;-84
2023/04/08 06:21:57;;;;;;;22.00;16.97;;;;;;;6.93;100.00;96533.66;6185098;23;20073;-84
2023/04/08 06:24:28;;;;;;;23.13;17.10;;;;;;;6.97;100.00;96525.41;6186213;23;20004;-84
2023/04/08 06:26:54;;;;;;;20.17;15.67;;;;;;;6.95;100.00;96534.38;6211447;23;20023;-84
2023/04/08 06:29:21;;;;;;;19.77;14.90;;;;;;;7.08;100.00;96530.59;6210669;23;20007;-84
2023/04/08 06:31:48;;;;;;;21.77;16.53;;;;;;;7.17;100.00;96526.34;6185124;23;20013;-84
2023/04/08 06:34:16;;;;;;;20.60;15.37;;;;;;;7.18;100.00;96522.78;6185596;23;20067;-83
2023/04/08 06:36:41;;;;;;;22.03;15.53;;;;;;;7.09;100.00;96523.56;6185202;23;20078;-84
2023/04/08 06:39:07;;;;;;;20.20;15.70;;;;;;;7.16;100.00;96521.25;6210699;23;20004;-84
2023/04/08 06:41:32;;;;;;;22.80;17.63;;;;;;;7.12;100.00;96525.91;6210706;23;20012;-84
2023/04/08 06:44:21;;;;;;;21.37;16.43;;;;;;;7.21;100.00;96530.38;6210991;23;20383;-84
2023/04/08 06:46:47;;;;;;;21.10;16.27;;;;;;;7.12;100.00;96528.53;6186861;23;20486;-84
2023/04/08 06:49:12;;;;;;;20.53;16.73;;;;;;;7.23;100.00;96531.06;6212350;23;20020;-85
2023/04/08 06:51:39;;;;;;;20.40;15.23;;;;;;;7.36;100.00;96535.25;6190361;23;20026;-84
2023/04/08 06:54:05;;;;;;;21.07;16.57;;;;;;;7.24;100.00;96532.72;6193281;23;20018;-84
2023/04/08 06:56:33;;;;;;;20.30;15.73;;;;;;;7.38;100.00;96544.63;6192336;23;20017;-84
2023/04/08 06:59:00;;;;;;;19.90;15.63;;;;;;;7.16;100.00;96540.38;6212202;23;20065;-84
2023/04/08 07:01:28;;;;;;;19.20;15.50;;;;;;;7.67;100.00;96551.72;6185445;23;20081;-84
2023/04/08 07:03:57;;;;;;;20.13;15.40;;;;;;;7.69;100.00;96548.03;6210593;23;20550;-84
2023/04/08 07:06:24;;;;;;;19.70;15.00;;;;;;;7.69;100.00;96550.66;6211045;23;20012;-84
2023/04/08 07:08:58;;;;;;;18.50;15.10;;;;;;;7.82;100.00;96541.72;6185490;23;20103;-84
2023/04/08 07:11:32;;;;;;;21.07;16.60;;;;;;;7.67;100.00;96538.66;6184909;23;20095;-84
2023/04/08 07:13:59;;;;;;;23.40;16.73;;;;;;;7.93;100.00;96533.75;6185157;23;20016;-84
2023/04/08 07:16:28;;;;;;;18.40;14.87;;;;;;;8.06;100.00;96533.50;6185492;23;20013;-84
2023/04/08 07:18:53;;;;;;;19.70;15.20;;;;;;;8.06;100.00;96529.09;6210855;23;20012;-83
2023/04/08 07:21:19;;;;;;;19.50;14.93;;;;;;;8.29;100.00;96534.91;6184988;23;20019;-82
2023/04/08 07:23:45;;;;;;;17.27;13.97;;;;;;;8.22;100.00;96526.75;6209245;23;20099;-82
2023/04/08 07:26:13;;;;;;;18.03;14.63;;;;;;;8.09;100.00;96526.19;6210301;23;20078;-82
2023/04/08 07:28:39;;;;;;;17.90;13.33;;;;;;;8.19;100.00;96532.25;6210035;23;20039;-82
2023/04/08 07:31:13;;;;;;;16.97;13.67;;;;;;;8.61;100.00;96529.38;6209579;23;20082;-81
2023/04/08 07:33:49;;;;;;;18.63;14.57;;;;;;;8.46;100.00;96531.59;6211152;23;20074;-81
2023/04/08 07:36:17;;;;;;;20.00;13.70;;;;;;;8.37;100.00;96542.06;6183625;23;20021;-81
2023/04/08 07:38:42;;;;;;;19.57;14.63;;;;;;;8.34;100.00;96537.09;6183928;23;20075;-82
2023/04/08 07:41:08;;;;;;;17.67;14.80;;;;;;;8.16;100.00;96542.19;6209585;23;20016;-81
2023/04/08 07:43:35;;;;;;;18.07;13.73;;;;;;;8.25;100.00;96547.44;6209305;23;20012;-82
2023/04/08 07:46:06;;;;;;;17.70;13.27;;;;;;;8.34;100.00;96547.56;6182741;23;20722;-80
2023/04/08 07:48:40;;;;;;;17.77;14.27;;;;;;;8.40;100.00;96550.50;6184118;23;20603;-83
2023/04/08 07:51:11;;;;;;;19.20;14.33;;;;;;;8.56;100.00;96547.34;6184548;23;20357;-82
2023/04/08 07:53:37;;;;;;;18.70;15.83;;;;;;;8.42;100.00;96551.19;6209731;23;20015;-82
2023/04/08 07:56:09;;;;;;;19.40;15.00;;;;;;;8.40;100.00;96552.28;6209659;23;20072;-82
2023/04/08 07:58:35;;;;;;;18.83;14.00;;;;;;;8.56;100.00;96549.94;6185158;23;20013;-83
2023/04/08 08:01:02;;;;;;;19.03;15.63;;;;;;;8.74;100.00;96556.13;6183916;23;20016;-82
2023/04/08 08:03:28;;;;;;;17.87;14.33;;;;;;;8.78;100.00;96561.09;6184695;23;20009;-83
2023/04/08 08:06:00;;;;;;;16.40;13.33;;;;;;;8.79;100.00;96563.59;6209594;23;20330;-83
2023/04/08 08:08:26;;;;;;;19.53;13.67;;;;;;;9.18;100.00;96551.22;6183444;23;20461;-84
2023/04/08 08:10:53;;;;;;;16.57;13.63;;;;;;;9.19;100.00;96555.50;6210225;23;20019;-83
2023/04/08 08:13:20;;;;;;;18.50;14.00;;;;;;;9.36;100.00;96559.19;6184423;23;20023;-83
2023/04/08 08:15:51;;;;;;;18.97;14.83;;;;;;;9.41;100.00;96564.00;6184113;23;20693;-83
2023/04/08 08:18:29;;;;;;;16.73;13.60;;;;;;;9.25;100.00;96563.75;6184166;23;20020;-83
2023/04/08 08:20:55;;;;;;;17.43;13.20;;;;;;;9.53;100.00;96567.28;6208543;23;20044;-82
2023/04/08 08:23:34;;;;;;;16.57;13.63;;;;;;;9.53;100.00;96564.66;6184834;23;20096;-83
2023/04/08 08:26:06;;;;;;;18.37;13.83;;;;;;;9.42;100.00;96563.00;6184656;23;20066;-83
2023/04/08 08:28:32;;;;;;;20.30;13.47;;;;;;;9.53;100.00;96565.47;6184710;23;20017;-83
2023/04/08 08:31:13;;;;;;;17.07;12.80;;;;;;;9.98;100.00;96559.44;6185255;23;20013;-83
2023/04/08 08:33:39;;;;;;;17.07;13.07;;;;;;;10.12;100.00;96556.28;6210444;23;20036;-82
2023/04/08 08:36:05;;;;;;;16.53;13.13;;;;;;;10.20;100.00;96560.00;6190370;23;20012;-83
2023/04/08 08:38:31;;;;;;;17.93;12.63;;;;;;;10.46;100.00;96560.09;6189505;23;20018;-83
2023/04/08 08:40:58;;;;;;;16.30;12.93;;;;;;;10.47;100.00;96556.50;6184239;23;20348;-82
2023/04/08 08:43:24;;;;;;;17.50;13.33;;;;;;;10.44;100.00;96562.91;6184645;23;20005;-83
2023/04/08 08:45:50;;;;;;;15.67;12.17;;;;;;;10.46;100.00;96571.47;6184281;23;20059;-83
2023/04/08 08:48:16;;;;;;;15.87;12.30;;;;;;;9.86;100.00;96568.50;6184638;23;20021;-83
2023/04/08 08:50:42;;;;;;;16.07;12.00;;;;;;;10.04;100.00;96577.25;6209422;23;20012;-83
2023/04/08 08:53:10;;;;;;;16.40;12.30;;;;;;;10.31;100.00;96568.50;6184117;23;20463;-83
2023/04/08 08:55:38;;;;;;;16.90;12.70;;;;;;;10.27;100.00;96571.59;6184619;23;20023;-83
2023/04/08 08:58:04;;;;;;;14.57;11.80;;;;;;;10.53;100.00;96572.53;6208688;23;20403;-83
2023/04/08 09:00:38;;;;;;;14.70;12.00;;;;;;;10.46;100.00;96568.84;6184174;23;20026;-83
2023/04/08 09:03:20;;;;;;;16.17;12.07;;;;;;;10.55;100.00;96572.34;6183664;23;20047;-82
2023/04/08 09:05:57;;;;;;;15.73;12.10;;;;;;;9.81;100.00;96576.81;6210044;23;20020;-83
2023/04/08 09:08:31;;;;;;;15.77;12.47;;;;;;;10.13;100.00;96583.41;6184448;23;20667;-83
2023/04/08 09:11:12;;;;;;;13.90;10.50;;;;;;;10.00;100.00;96578.50;6212233;23;20015;-83
2023/04/08 09:13:42;;;;;;;15.07;10.43;;;;;;;10.14;100.00;96571.94;6185746;23;20120;-83
2023/04/08 09:16:09;;;;;;;14.63;10.73;;;;;;;9.91;100.00;96572.31;6186664;23;20448;-83
2023/04/08 09:18:37;;;;;;;13.07;9.80;;;;;;;9.51;100.00;96580.53;6186769;23;20016;-83
2023/04/08 09:21:03;;;;;;;15.70;10.17;;;;;;;10.05;100.00;96581.50;6210235;23;20044;-83
2023/04/08 09:23:48;;;;;;;12.00;9.70;;;;;;;9.59;100.00;96572.78;6210859;23;20440;-83
2023/04/08 09:26:15;;;;;;;16.17;11.37;;;;;;;9.67;100.00;96575.50;6186112;23;20020;-83
2023/04/08 09:28:42;;;;;;;14.00;9.43;;;;;;;9.49;100.00;96572.00;6186649;23;20040;-82
2023/04/08 09:31:19;;;;;;;13.50;10.70;;;;;;;9.54;100.00;96569.75;6211776;23;20016;-83
2023/04/08 09:34:01;;;;;;;15.10;11.10;;;;;;;9.81;100.00;96581.25;6211111;23;20043;-83
2023/04/08 09:36:27;;;;;;;14.50;10.77;;;;;;;9.38;100.00;96590.53;6211616;23;20021;-83
2023/04/08 09:38:57;;;;;;;19.37;11.07;;;;;;;9.21;100.00;96585.03;6185710;23;20387;-83
2023/04/08 09:41:26;;;;;;;19.83;11.50;;;;;;;9.52;100.00;96587.44;6185998;23;20024;-83
2023/04/08 09:43:54;;;;;;;16.80;10.27;;;;;;;9.51;100.00;96585.78;6211209;23;20008;-82
2023/04/08 09:46:35;;;;;;;13.17;10.17;;;;;;;9.54;100.00;96588.13;6186083;23;20005;-83
2023/04/08 09:49:39;;;;;;;13.40;9.63;;;;;;;9.54;100.00;96596.00;6186260;23;20012;-83
2023/04/08 09:52:07;;;;;;;16.13;10.05;;;;;;;9.37;100.00;96594.13;6210859;23;20468;-83
2023/04/08 09:55:04;;;;;;;16.03;10.40;;;;;;;9.52;100.00;96591.84;6185931;23;20017;-83
2023/04/08 09:57:40;;;;;;;15.83;9.83;;;;;;;9.31;100.00;96597.31;6206644;23;20044;-83
2023/04/08 10:00:32;;;;;;;13.50;9.50;;;;;;;9.44;100.00;96589.97;6186448;23;20016;-83
2023/04/08 10:03:23;;;;;;;13.67;9.97;;;;;;;9.62;100.00;96601.38;6210997;23;20052;-82
2023/04/08 10:05:53;;;;;;;15.90;9.80;;;;;;;9.52;100.00;96591.84;6211416;23;20467;-83
2023/04/08 10:08:18;;;;;;;12.60;9.37;;;;;;;9.26;100.00;96596.94;6185374;23;20032;-83
2023/04/08 10:10:45;;;;;;;13.00;8.83;;;;;;;9.52;100.00;96591.84;6211466;23;20017;-83
2023/04/08 10:13:11;;;;;;;12.53;8.27;;;;;;;9.43;100.00;96598.81;6186571;23;20012;-86
2023/04/08 10:15:38;;;;;;;14.90;11.80;;;;;;;9.55;100.00;96589.75;6189354;23;20095;-85
2023/04/08 10:18:04;;;;;;;19.97;13.93;;;;;;;9.58;100.00;96593.91;6187437;23;20011;-83
2023/04/08 10:20:33;;;;;;;13.23;8.97;;;;;;;9.21;100.00;96599.97;6191123;23;20017;-83
2023/04/08 10:23:00;;;;;;;13.07;8.60;;;;;;;9.12;100.00;96601.66;6216645;23;20362;-82
2023/04/08 10:25:30;;;;;;;12.33;8.00;;;;;;;9.29;100.00;96601.88;6211600;23;20024;-83
2023/04/08 10:27:56;;;;;;;13.47;8.67;;;;;;;9.26;100.00;96602.19;6186828;23;20461;-83
2023/04/08 10:30:44;;;;;;;10.03;7.57;;;;;;;9.10;100.00;96603.56;6209250;23;20099;-83
2023/04/08 10:33:14;;;;;;;13.80;8.00;;;;;;;8.96;100.00;96602.22;6184777;23;20021;-83
2023/04/08 10:35:47;;;;;;;12.50;8.60;;;;;;;9.19;100.00;96601.91;6185526;23;20047;-83
2023/04/08 10:38:14;;;;;;;11.52;8.20;;;;;;;8.97;100.00;96597.78;6235609;23;20020;-83
2023/04/08 10:40:44;;;;;;;12.20;7.80;;;;;;;9.23;100.00;96605.09;6185230;23;20031;-83
2023/04/08 10:43:13;;;;;;;14.37;8.07;;;;;;;8.70;100.00;96601.97;6210387;23;20016;-83
2023/04/08 10:45:45;;;;;;;11.90;7.60;;;;;;;8.90;100.00;96596.72;6210955;23;20019;-83
2023/04/08 10:48:11;;;;;;;12.87;7.97;;;;;;;9.20;100.00;96598.31;6185747;23;20017;-83
2023/04/08 10:50:41;;;;;;;12.00;8.80;;;;;;;9.05;100.00;96604.97;6236053;23;20777;-83
2023/04/08 10:53:07;;;;;;;16.67;12.30;;;;;;;9.09;100.00;96601.13;6210074;23;20012;-83
2023/04/08 10:55:35;;;;;;;13.13;8.10;;;;;;;9.32;100.00;96606.84;6210571;23;20008;-83
2023/04/08 10:58:08;;;;;;;14.93;8.53;;;;;;;9.06;100.00;96602.22;6186475;23;20005;-86
2023/04/08 11:00:39;;;;;;;10.93;7.07;;;;;;;8.93;100.00;96604.31;6187859;23;20023;-86
2023/04/08 11:03:09;;;;;;;10.37;7.20;;;;;;;9.09;100.00;96594.06;6185511;23;20420;-87
2023/04/08 11:05:38;;;;;;;11.10;7.60;;;;;;;9.46;100.00;96590.66;6186259;23;20024;-87
2023/04/08 11:08:05;;;;;;;14.93;9.00;;;;;;;9.01;100.00;96588.69;6213886;23;20012;-87
2023/04/08 11:10:37;;;;;;;605.43;423.43;;;;;;;10.06;100.00;96591.06;6237428;23;20893;-90
2023/04/08 11:13:11;;;;;;;164.48;112.00;;;;;;;10.42;100.00;96596.38;6185649;23;20067;-86
2023/04/08 11:15:41;;;;;;;93.73;55.97;;;;;;;10.77;100.00;96592.13;6192737;23;20467;-88
2023/04/08 11:18:08;;;;;;;41.37;26.20;;;;;;;10.92;100.00;96589.75;6187503;23;20087;-89
2023/04/08 11:20:35;;;;;;;17.50;12.53;;;;;;;10.77;100.00;96600.00;6187838;23;20103;-90
2023/04/08 11:23:02;;;;;;;12.13;8.50;;;;;;;9.75;100.00;96587.88;6188492;23;20008;-90
2023/04/08 11:25:28;;;;;;;11.70;7.97;;;;;;;10.18;100.00;96596.09;6215345;23;20015;-86
2023/04/08 11:27:54;;;;;;;20.27;12.80;;;;;;;10.41;100.00;96605.25;6189855;23;20012;-83